samedi 14 novembre, c'est interdit

C'est ici que vous annoncez vos sessions...

Modérateurs: CHOUBIDOU, nicopen, yanns, kek85

samedi 14 novembre, c'est interdit

Messagepar mikowi le 14 Nov 2020, 15:13

Observations for DINARD PLEURTUIT, France (LFRD)
LFRD 141400Z AUTO 19020KT 9999 BKN020 BKN025 BKN032 16/13 Q1008 TEMPO 4000 -RA OVC007 BECMG 18020G30KT
LFRD 141330Z AUTO 18017KT 9999 SCT022 BKN028 BKN043 16/13 Q1008 TEMPO 4000 -RA OVC007 BECMG 18020G30KT
LFRD 141300Z AUTO 18017KT 9999 FEW017 15/12 Q1009 TEMPO 4000 -RA OVC007 BECMG 18020G30KT
LFRD 141230Z AUTO 18019KT 9999 FEW016 SCT100 BKN160 16/13 Q1009 TEMPO 4000 -RA OVC007 BECMG 18020G30KT
LFRD 141200Z AUTO 18018KT 9999 FEW015 SCT110 BKN170 15/12 Q1009 TEMPO 4000 -RA OVC007 BECMG 18020G30KT
LFRD 141130Z AUTO 18017KT 150V210 9999 BKN015 OVC190 14/12 Q1010 TEMPO 4000 -RA OVC007 BECMG 18020G30KT


Faites nous rêver, ceux qui ont vu sur le spot, y a du monde à l'eau qd même, genre à Lancieux,
avec 20knt de Sud ? 8)
Image Powered by MWS
Avatar de l’utilisateur
mikowi
 
Messages: 277
Inscrit le: 07 Mai 2011, 17:41
Localisation: Le Rheu

samedi 14 novembre, c'est interdit

Publicité

Publicité
 

Retourner vers Sessions/Covoiturage

Qui est en ligne

Utilisateurs parcourant ce forum : Aucun utilisateur inscrit et 7 invités